createdAt,value
2022-12-22T00:00:42.091Z,12.70
2022-12-22T00:02:37.884Z,12.98
2022-12-22T00:04:29.419Z,11.20
2022-12-22T00:06:19.770Z,11.40
2022-12-22T00:08:10.435Z,12.43
2022-12-22T00:10:01.113Z,12.02
2022-12-22T00:11:52.038Z,12.70
2022-12-22T00:13:42.520Z,12.35
2022-12-22T00:15:34.511Z,12.23
2022-12-22T00:17:36.347Z,12.88
2022-12-22T00:19:31.478Z,11.88
2022-12-22T00:21:22.500Z,12.07
2022-12-22T00:23:13.011Z,11.82
2022-12-22T00:25:03.387Z,11.70
2022-12-22T00:26:54.926Z,12.07
2022-12-22T00:28:45.265Z,11.35
2022-12-22T00:30:36.364Z,11.55
2022-12-22T00:32:32.831Z,11.65
2022-12-22T00:34:32.437Z,13.20
2022-12-22T00:36:24.951Z,11.68
2022-12-22T00:38:15.416Z,12.23
2022-12-22T00:40:06.126Z,10.70
2022-12-22T00:41:56.469Z,11.48
2022-12-22T00:43:47.060Z,11.75
2022-12-22T00:45:28.159Z,12.25
2022-12-22T00:47:18.405Z,11.50
2022-12-22T00:49:09.866Z,11.80
2022-12-22T00:51:01.571Z,11.32
2022-12-22T00:52:53.663Z,11.93
2022-12-22T00:54:44.212Z,11.45
2022-12-22T00:56:34.665Z,12.00
2022-12-22T00:58:32.867Z,11.00
2022-12-22T01:00:25.242Z,10.75
2022-12-22T01:02:16.182Z,10.50
2022-12-22T01:04:06.959Z,10.30
2022-12-22T01:05:57.529Z,10.75
2022-12-22T01:07:49.162Z,10.30
2022-12-22T01:09:40.065Z,10.93
2022-12-22T01:11:30.556Z,10.30
2022-12-22T01:13:20.963Z,10.38
2022-12-22T01:15:11.439Z,10.52
2022-12-22T01:17:01.826Z,11.63
2022-12-22T01:18:52.360Z,10.52
2022-12-22T01:20:42.856Z,11.50
2022-12-22T01:22:36.916Z,11.00
2022-12-22T01:24:31.903Z,10.98
2022-12-22T01:26:22.472Z,11.23
2022-12-22T01:28:13.204Z,10.52
2022-12-22T01:30:03.354Z,11.07
2022-12-22T01:31:53.816Z,10.93
2022-12-22T01:33:44.252Z,10.85
2022-12-22T01:35:40.463Z,10.10
2022-12-22T01:37:30.877Z,10.93
2022-12-22T01:39:22.220Z,11.15
2022-12-22T01:41:15.671Z,10.23
2022-12-22T01:43:06.333Z,10.85
2022-12-22T01:44:56.976Z,10.35
2022-12-22T01:46:49.607Z,10.50
2022-12-22T01:48:44.935Z,10.38
2022-12-22T01:50:39.872Z,10.60
2022-12-22T01:52:31.933Z,10.60
2022-12-22T01:54:22.800Z,10.88
2022-12-22T01:56:15.895Z,10.90
2022-12-22T01:58:06.422Z,10.45
2022-12-22T01:59:56.841Z,10.02
2022-12-22T02:01:49.669Z,9.90
2022-12-22T02:03:41.492Z,10.73
2022-12-22T02:05:34.624Z,9.52
2022-12-22T02:07:37.132Z,9.73
2022-12-22T02:09:46.224Z,9.75
2022-12-22T02:11:48.127Z,10.18
2022-12-22T02:13:49.050Z,10.52
2022-12-22T02:15:45.201Z,9.88
2022-12-22T02:17:43.726Z,11.10
2022-12-22T02:19:47.477Z,10.25
2022-12-22T02:21:41.096Z,10.38
2022-12-22T02:23:44.540Z,10.07
2022-12-22T02:25:39.660Z,10.88
2022-12-22T02:27:32.344Z,10.18
2022-12-22T02:29:24.684Z,10.07
2022-12-22T02:31:15.573Z,9.80
2022-12-22T02:33:09.909Z,10.30
2022-12-22T02:35:00.634Z,9.85
2022-12-22T02:37:09.274Z,10.27
2022-12-22T02:39:07.851Z,9.50
2022-12-22T02:41:09.079Z,9.80
2022-12-22T02:43:06.997Z,9.18
2022-12-22T02:45:09.532Z,9.43
2022-12-22T02:47:06.275Z,9.02
2022-12-22T02:49:03.905Z,9.93
2022-12-22T02:51:01.042Z,9.75
2022-12-22T02:52:55.845Z,9.75
2022-12-22T02:54:47.554Z,10.10
2022-12-22T02:56:38.112Z,10.02
2022-12-22T02:58:31.988Z,9.30
2022-12-22T03:00:24.045Z,9.65
2022-12-22T03:02:15.627Z,9.48
2022-12-22T03:04:06.748Z,9.50
2022-12-22T03:05:57.215Z,9.93
2022-12-22T03:07:47.712Z,9.20
2022-12-22T03:09:38.345Z,8.80
2022-12-22T03:11:28.726Z,9.82
2022-12-22T03:13:19.406Z,10.13
2022-12-22T03:15:11.325Z,9.73
2022-12-22T03:17:01.754Z,9.95
2022-12-22T03:18:52.161Z,9.43
2022-12-22T03:20:42.766Z,9.93
2022-12-22T03:22:33.102Z,10.75
2022-12-22T03:24:23.984Z,9.55
2022-12-22T03:25:56.824Z,9.85
2022-12-22T03:27:29.708Z,9.93
2022-12-22T03:29:02.608Z,10.13
2022-12-22T03:30:37.272Z,10.18
2022-12-22T03:32:10.208Z,10.18
2022-12-22T03:33:43.103Z,10.45
2022-12-22T03:35:16.057Z,10.15
2022-12-22T03:36:48.931Z,10.40
2022-12-22T03:38:21.054Z,12.05
2022-12-22T03:39:53.902Z,10.10
2022-12-22T03:41:44.053Z,10.90
2022-12-22T03:43:35.404Z,9.75
2022-12-22T03:45:28.332Z,10.43
2022-12-22T03:47:02.698Z,10.20
2022-12-22T03:48:35.686Z,10.07
2022-12-22T03:50:09.327Z,10.05
2022-12-22T03:51:44.449Z,11.13
2022-12-22T03:53:17.386Z,10.88
2022-12-22T03:54:50.378Z,11.48
2022-12-22T03:56:23.250Z,10.65
2022-12-22T03:57:56.161Z,10.20
2022-12-22T03:59:29.075Z,10.00
2022-12-22T04:01:07.235Z,10.25
2022-12-22T04:02:41.621Z,10.30
2022-12-22T04:04:15.626Z,9.80
2022-12-22T04:05:48.498Z,9.90
2022-12-22T04:07:20.400Z,11.02
2022-12-22T04:08:53.374Z,10.00
2022-12-22T04:10:44.027Z,10.30
2022-12-22T04:12:34.682Z,9.05
2022-12-22T04:14:07.711Z,9.85
2022-12-22T04:15:41.074Z,9.75
2022-12-22T04:20:23.661Z,9.15
2022-12-22T04:21:55.564Z,9.70
2022-12-22T04:23:28.508Z,10.00
2022-12-22T04:25:04.544Z,9.63
2022-12-22T04:26:37.801Z,9.23
2022-12-22T04:28:10.624Z,8.93
2022-12-22T04:29:43.451Z,9.15
2022-12-22T04:31:15.448Z,8.95
2022-12-22T04:32:48.386Z,10.27
2022-12-22T04:34:21.626Z,9.85
2022-12-22T04:35:54.524Z,10.30
2022-12-22T04:37:27.636Z,10.15
2022-12-22T04:39:00.572Z,9.98
2022-12-22T04:40:33.453Z,9.73
2022-12-22T04:42:05.470Z,9.18
2022-12-22T04:43:38.561Z,9.55
2022-12-22T04:45:12.067Z,9.48
2022-12-22T04:46:46.268Z,9.25
2022-12-22T04:48:18.130Z,9.13
2022-12-22T04:49:52.373Z,8.57
2022-12-22T04:51:25.347Z,8.77
2022-12-22T04:52:57.251Z,8.63
2022-12-22T04:54:30.129Z,9.07
2022-12-22T04:56:05.599Z,8.70
2022-12-22T04:57:40.842Z,9.07
2022-12-22T04:59:14.139Z,9.23
2022-12-22T05:00:47.407Z,8.50
2022-12-22T05:02:20.405Z,8.57
2022-12-22T05:03:53.433Z,10.05
2022-12-22T05:05:27.678Z,8.70
2022-12-22T05:07:00.520Z,8.77
2022-12-22T05:08:33.503Z,8.27
2022-12-22T05:10:07.569Z,8.73
2022-12-22T05:11:40.713Z,8.18
2022-12-22T05:13:12.678Z,8.10
2022-12-22T05:14:45.552Z,8.20
2022-12-22T05:16:18.888Z,8.68
2022-12-22T05:19:30.462Z,8.63
2022-12-22T05:21:07.195Z,8.02
2022-12-22T05:22:39.173Z,8.25
2022-12-22T05:24:12.552Z,8.50
2022-12-22T05:25:45.965Z,8.63
2022-12-22T05:28:50.550Z,7.43
2022-12-22T05:30:22.522Z,7.78
2022-12-22T05:31:55.486Z,8.60
2022-12-22T05:33:28.430Z,8.02
2022-12-22T05:35:01.430Z,8.73
2022-12-22T05:36:35.867Z,8.98
2022-12-22T05:38:08.753Z,8.52
2022-12-22T05:39:40.683Z,8.63
2022-12-22T05:41:13.668Z,8.30
2022-12-22T05:42:46.517Z,8.10
2022-12-22T05:44:19.396Z,8.20
2022-12-22T05:45:53.158Z,7.97
2022-12-22T05:47:26.096Z,7.68
2022-12-22T05:48:59.135Z,7.63
2022-12-22T05:50:32.668Z,7.10
2022-12-22T05:52:06.993Z,6.72
2022-12-22T05:53:40.527Z,7.20
2022-12-22T05:55:14.540Z,7.22
2022-12-22T05:56:47.436Z,6.97
2022-12-22T05:58:20.570Z,7.55
2022-12-22T05:59:52.483Z,7.97
2022-12-22T06:01:25.493Z,7.50
2022-12-22T06:02:59.036Z,7.93
2022-12-22T06:04:32.005Z,7.80
2022-12-22T06:06:05.402Z,8.20
2022-12-22T06:09:12.323Z,6.90
2022-12-22T06:10:45.336Z,7.25
2022-12-22T06:12:18.275Z,7.80
2022-12-22T06:13:51.259Z,7.13
2022-12-22T06:15:24.131Z,6.75
2022-12-22T06:16:57.233Z,6.40
2022-12-22T06:18:30.270Z,6.57
2022-12-22T06:20:03.141Z,6.63
2022-12-22T06:21:36.086Z,6.80
2022-12-22T06:23:10.299Z,6.70
2022-12-22T06:24:43.280Z,6.57
2022-12-22T06:26:16.218Z,6.82
2022-12-22T06:27:49.163Z,6.90
2022-12-22T06:29:22.161Z,6.50
2022-12-22T06:30:55.495Z,6.57
2022-12-22T06:34:01.512Z,6.35
2022-12-22T06:35:34.388Z,5.88
2022-12-22T06:37:07.273Z,7.30
2022-12-22T06:38:41.534Z,6.20
2022-12-22T06:40:14.924Z,6.20
2022-12-22T06:43:38.084Z,6.20
2022-12-22T06:45:10.871Z,6.22
2022-12-22T06:46:43.884Z,6.45
2022-12-22T06:48:18.187Z,6.60
2022-12-22T06:49:51.383Z,7.00
2022-12-22T06:51:24.344Z,6.82
2022-12-22T06:53:16.525Z,5.85
2022-12-22T06:54:54.002Z,5.95
2022-12-22T06:56:31.525Z,5.95
2022-12-22T07:00:20.165Z,6.38
2022-12-22T07:01:53.300Z,6.40
2022-12-22T07:03:36.912Z,6.22
2022-12-22T07:05:10.505Z,6.07
2022-12-22T07:06:48.560Z,6.82
2022-12-22T07:08:22.193Z,5.75
2022-12-22T07:10:05.992Z,7.38
2022-12-22T07:11:37.940Z,6.22
2022-12-22T07:13:20.368Z,6.30
2022-12-22T07:14:53.371Z,5.68
2022-12-22T07:16:26.336Z,6.10
2022-12-22T07:17:59.335Z,6.53
2022-12-22T07:19:32.206Z,6.25
2022-12-22T07:21:07.287Z,5.88
2022-12-22T07:22:40.347Z,6.10
2022-12-22T07:24:13.475Z,6.32
2022-12-22T07:27:20.838Z,5.95
2022-12-22T07:28:53.726Z,6.30
2022-12-22T07:30:26.682Z,6.97
2022-12-22T07:31:59.696Z,7.20
2022-12-22T07:33:33.005Z,7.55
2022-12-22T07:36:39.189Z,7.00
2022-12-22T07:38:13.141Z,7.38
2022-12-22T07:39:46.029Z,6.25
2022-12-22T07:41:38.968Z,7.07
2022-12-22T07:43:11.828Z,6.68
2022-12-22T07:44:44.878Z,6.38
2022-12-22T07:46:17.828Z,6.43
2022-12-22T07:47:51.187Z,5.90
2022-12-22T07:49:41.336Z,5.90
2022-12-22T07:51:13.268Z,5.65
2022-12-22T07:52:46.224Z,6.00
2022-12-22T07:54:20.107Z,5.97
2022-12-22T07:55:53.030Z,6.35
2022-12-22T07:57:27.514Z,5.47
2022-12-22T07:59:00.623Z,5.72
2022-12-22T08:00:33.603Z,5.47
2022-12-22T08:02:06.676Z,5.00
2022-12-22T08:03:39.599Z,4.75
2022-12-22T08:05:12.608Z,4.93
2022-12-22T08:06:46.046Z,5.93
2022-12-22T08:09:51.897Z,6.75
2022-12-22T08:11:24.816Z,6.53
2022-12-22T08:12:59.278Z,6.07
2022-12-22T08:14:32.271Z,5.63
2022-12-22T08:16:06.826Z,5.88
2022-12-22T08:17:40.173Z,5.18
2022-12-22T08:19:13.185Z,5.32
2022-12-22T08:20:50.750Z,5.50
2022-12-22T08:22:25.025Z,5.00
2022-12-22T08:23:57.901Z,4.20
2022-12-22T08:25:32.999Z,4.22
2022-12-22T08:27:12.903Z,4.22
2022-12-22T08:28:52.974Z,4.07
2022-12-22T08:30:26.018Z,3.60
2022-12-22T08:31:59.209Z,3.38
2022-12-22T08:33:32.333Z,3.55
2022-12-22T08:35:06.387Z,3.53
2022-12-22T08:36:42.865Z,3.78
2022-12-22T08:38:16.085Z,3.80
2022-12-22T08:39:52.843Z,3.30
2022-12-22T08:41:39.806Z,3.35
2022-12-22T08:43:13.604Z,3.40
2022-12-22T08:44:53.070Z,3.38
2022-12-22T08:46:26.633Z,3.53
2022-12-22T08:47:59.544Z,3.30
2022-12-22T08:49:32.739Z,3.83
2022-12-22T08:51:06.055Z,2.88
2022-12-22T08:52:39.685Z,2.78
2022-12-22T08:54:13.364Z,3.33
2022-12-22T08:55:53.129Z,3.17
2022-12-22T08:57:26.160Z,2.83
2022-12-22T08:58:59.337Z,3.08
2022-12-22T09:00:33.718Z,3.47
2022-12-22T09:06:08.807Z,2.25
2022-12-22T09:07:42.127Z,2.63
2022-12-22T09:09:16.665Z,2.20
2022-12-22T09:10:49.689Z,1.52
2022-12-22T09:12:22.687Z,2.42
2022-12-22T09:13:57.886Z,1.88
2022-12-22T09:15:30.873Z,1.73
2022-12-22T09:17:05.920Z,2.40
2022-12-22T09:18:38.876Z,2.38
2022-12-22T09:20:12.450Z,2.63
2022-12-22T09:34:30.707Z,2.95
2022-12-22T09:36:09.541Z,3.13
2022-12-22T09:37:42.510Z,1.85
2022-12-22T09:39:15.845Z,1.63
2022-12-22T09:42:23.987Z,1.73
2022-12-22T09:43:57.651Z,1.80
2022-12-22T09:45:33.849Z,1.70
2022-12-22T09:47:15.452Z,1.50
2022-12-22T09:48:47.794Z,1.40
2022-12-22T09:50:24.039Z,1.50
2022-12-22T09:52:01.039Z,1.60
2022-12-22T09:53:34.068Z,1.90
2022-12-22T09:55:15.167Z,1.70
2022-12-22T09:56:48.419Z,1.55
2022-12-22T09:58:27.206Z,1.70
2022-12-22T10:00:17.918Z,1.67
2022-12-22T10:02:19.363Z,1.45
2022-12-22T10:04:00.424Z,1.63
2022-12-22T10:05:40.859Z,1.50
2022-12-22T10:07:25.632Z,1.40
2022-12-22T10:09:05.798Z,1.45
2022-12-22T10:10:43.090Z,1.50
2022-12-22T10:12:18.184Z,1.52
2022-12-22T10:13:51.216Z,1.75
2022-12-22T10:15:24.765Z,1.40
2022-12-22T10:17:16.202Z,1.45
2022-12-22T10:19:02.046Z,1.20
2022-12-22T10:20:35.363Z,1.25
2022-12-22T10:22:25.378Z,2.05
2022-12-22T10:23:58.314Z,1.30
2022-12-22T10:27:31.592Z,1.63
2022-12-22T10:29:08.682Z,2.05
2022-12-22T10:30:42.737Z,1.95
2022-12-22T10:32:18.466Z,1.50
2022-12-22T10:33:54.465Z,1.65
2022-12-22T10:35:28.013Z,1.60
2022-12-22T10:37:03.492Z,1.30
2022-12-22T10:38:40.563Z,1.20
2022-12-22T10:40:18.962Z,1.50
2022-12-22T10:41:55.594Z,2.30
2022-12-22T10:43:31.090Z,1.80
2022-12-22T10:45:04.874Z,2.10
2022-12-22T10:46:40.744Z,1.60
2022-12-22T10:48:17.033Z,1.52
2022-12-22T10:51:37.435Z,2.40
2022-12-22T10:53:11.093Z,3.78
2022-12-22T10:54:46.701Z,4.35
2022-12-22T10:56:26.125Z,7.22
2022-12-22T10:58:21.785Z,5.00
2022-12-22T10:59:58.010Z,2.50
2022-12-22T11:01:32.843Z,1.70
2022-12-22T11:03:08.237Z,3.63
2022-12-22T11:04:41.327Z,4.03
2022-12-22T11:06:50.374Z,4.40
2022-12-22T11:08:28.193Z,2.78
2022-12-22T11:10:16.671Z,3.30
2022-12-22T11:11:52.572Z,2.00
2022-12-22T11:16:31.168Z,1.80
2022-12-22T11:18:17.791Z,1.40
2022-12-22T11:20:00.120Z,1.33
2022-12-22T11:21:45.520Z,1.42
2022-12-22T11:23:27.839Z,1.35
2022-12-22T11:25:26.129Z,1.40
2022-12-22T11:27:24.766Z,2.22
2022-12-22T11:29:13.166Z,1.50
2022-12-22T11:30:55.173Z,1.50
2022-12-22T11:32:52.529Z,1.30
2022-12-22T11:34:41.682Z,1.40
2022-12-22T11:36:24.748Z,1.30
2022-12-22T11:38:22.507Z,1.70
2022-12-22T11:40:25.931Z,1.60
2022-12-22T11:45:05.476Z,1.48
2022-12-22T11:46:44.660Z,1.33
2022-12-22T11:51:55.564Z,1.27
2022-12-22T11:56:41.811Z,1.30
2022-12-22T11:58:35.063Z,1.00
2022-12-22T12:00:13.208Z,1.10
2022-12-22T12:02:05.622Z,1.60
2022-12-22T12:04:55.476Z,1.50
2022-12-22T12:10:28.702Z,1.40
2022-12-22T12:12:24.274Z,1.40
2022-12-22T12:14:05.955Z,1.42
2022-12-22T12:15:46.182Z,1.40
2022-12-22T12:17:27.214Z,1.15
2022-12-22T12:19:26.607Z,2.33
2022-12-22T12:21:11.923Z,4.78
2022-12-22T12:22:59.785Z,1.65
2022-12-22T12:24:57.108Z,1.60
2022-12-22T12:26:34.234Z,1.27
2022-12-22T12:28:17.810Z,1.10
2022-12-22T12:30:36.224Z,1.55
2022-12-22T12:32:02.950Z,1.40
2022-12-22T12:33:40.205Z,1.48
2022-12-22T12:35:33.016Z,1.35
2022-12-22T12:37:14.504Z,1.58
2022-12-22T12:39:07.842Z,1.10
2022-12-22T12:40:49.570Z,1.05
2022-12-22T12:42:29.661Z,1.08
2022-12-22T12:44:04.329Z,1.30
2022-12-22T12:45:41.030Z,1.70
2022-12-22T12:47:26.039Z,1.10
2022-12-22T12:49:00.866Z,1.45
2022-12-22T12:50:35.863Z,1.70
2022-12-22T12:52:10.149Z,1.40
2022-12-22T12:54:21.314Z,1.20
2022-12-22T12:56:02.681Z,1.75
2022-12-22T12:57:48.622Z,1.38
2022-12-22T12:59:49.605Z,1.00
2022-12-22T13:01:57.507Z,1.30
2022-12-22T13:05:36.533Z,1.83
2022-12-22T13:07:08.533Z,1.20
2022-12-22T13:13:47.764Z,1.25
2022-12-22T13:15:34.703Z,1.33
2022-12-22T13:17:40.812Z,1.77
2022-12-22T13:19:26.368Z,1.60
2022-12-22T13:21:33.882Z,1.63
2022-12-22T13:22:55.510Z,1.17
2022-12-22T13:24:32.127Z,1.55
2022-12-22T13:26:10.024Z,1.30
2022-12-22T13:27:43.147Z,1.30
2022-12-22T13:29:24.128Z,1.25
2022-12-22T13:31:02.505Z,1.10
2022-12-22T13:32:37.474Z,1.35
2022-12-22T13:35:04.454Z,1.20
2022-12-22T13:36:35.799Z,1.05
2022-12-22T13:38:29.094Z,1.00
2022-12-22T13:40:12.457Z,1.10
2022-12-22T13:41:48.079Z,1.00
2022-12-22T13:43:22.172Z,1.17
2022-12-22T13:44:55.971Z,1.15
2022-12-22T13:46:29.061Z,1.40
2022-12-22T13:48:07.144Z,1.15
2022-12-22T13:50:07.917Z,1.23
2022-12-22T13:51:38.178Z,1.30
2022-12-22T13:53:41.689Z,1.23
2022-12-22T13:55:14.505Z,1.27
2022-12-22T13:56:50.556Z,3.90
2022-12-22T13:58:28.559Z,0.73
2022-12-22T14:00:01.479Z,1.60
2022-12-22T14:01:34.487Z,1.27
2022-12-22T14:03:49.488Z,1.00
2022-12-22T14:05:13.316Z,1.23
2022-12-22T14:06:46.165Z,1.17
2022-12-22T14:08:24.373Z,0.95
2022-12-22T14:09:58.060Z,1.02
2022-12-22T14:11:32.381Z,0.90
2022-12-22T14:13:15.629Z,1.90
2022-12-22T14:14:50.983Z,1.20
2022-12-22T14:16:23.939Z,1.00
2022-12-22T14:17:56.993Z,1.30
2022-12-22T14:19:35.091Z,1.10
2022-12-22T14:21:10.238Z,1.17
2022-12-22T14:22:50.445Z,1.10
2022-12-22T14:24:33.250Z,1.50
2022-12-22T14:26:13.691Z,1.48
2022-12-22T14:27:49.501Z,1.20
2022-12-22T14:29:27.077Z,1.00
2022-12-22T14:31:02.191Z,1.40
2022-12-22T14:32:38.596Z,1.60
2022-12-22T14:34:26.183Z,1.40
2022-12-22T14:36:18.355Z,1.58
2022-12-22T14:37:53.063Z,1.10
2022-12-22T14:39:27.730Z,1.08
2022-12-22T14:40:59.758Z,1.10
2022-12-22T14:42:34.232Z,1.20
2022-12-22T14:44:07.823Z,1.10
2022-12-22T14:45:40.738Z,1.05
2022-12-22T14:47:19.556Z,1.20
2022-12-22T14:48:52.473Z,1.27
2022-12-22T14:50:27.120Z,1.00
2022-12-22T14:52:07.409Z,1.30
2022-12-22T14:53:46.432Z,1.20
2022-12-22T14:55:28.395Z,1.13
2022-12-22T14:57:11.619Z,1.40
2022-12-22T14:58:50.222Z,1.20
2022-12-22T15:00:33.084Z,1.10
2022-12-22T15:02:23.212Z,1.00
2022-12-22T15:04:02.599Z,1.20
2022-12-22T15:05:38.237Z,1.30
2022-12-22T15:10:13.256Z,1.10
2022-12-22T15:11:25.605Z,1.20
2022-12-22T15:13:00.868Z,1.10
2022-12-22T15:14:38.980Z,1.10
2022-12-22T15:16:15.979Z,1.20
2022-12-22T15:17:50.785Z,0.93
2022-12-22T15:19:24.262Z,0.88
2022-12-22T15:20:58.608Z,1.45
2022-12-22T15:22:32.917Z,2.20
2022-12-22T15:24:11.972Z,1.13
2022-12-22T15:25:45.187Z,2.05
2022-12-22T15:27:18.243Z,1.27
2022-12-22T15:28:51.082Z,1.13
2022-12-22T15:30:29.633Z,1.13
2022-12-22T15:32:02.899Z,1.00
2022-12-22T15:33:35.938Z,1.10
2022-12-22T15:35:24.965Z,1.05
2022-12-22T15:36:58.108Z,1.40
2022-12-22T15:38:38.481Z,1.30
2022-12-22T15:40:17.978Z,1.00
2022-12-22T15:41:50.906Z,1.35
2022-12-22T15:45:18.968Z,1.20
2022-12-22T15:46:57.377Z,1.40
2022-12-22T15:48:33.328Z,1.48
2022-12-22T15:50:08.371Z,1.70
2022-12-22T15:51:41.403Z,1.67
2022-12-22T15:53:17.892Z,2.20
2022-12-22T15:54:52.308Z,1.52
2022-12-22T15:56:27.910Z,1.60
2022-12-22T15:58:01.364Z,1.60
2022-12-22T16:01:07.191Z,2.30
2022-12-22T16:02:40.504Z,2.30
2022-12-22T16:05:46.820Z,1.77
2022-12-22T16:08:54.548Z,2.08
2022-12-22T16:10:31.196Z,1.98
2022-12-22T16:12:04.341Z,1.70
2022-12-22T16:13:38.160Z,2.13
2022-12-22T16:15:15.041Z,1.58
2022-12-22T16:16:48.415Z,1.60
2022-12-22T16:18:21.439Z,2.95
2022-12-22T16:19:54.925Z,2.20
2022-12-22T16:21:33.457Z,2.35
2022-12-22T16:23:08.470Z,1.80
2022-12-22T16:24:44.038Z,1.40
2022-12-22T16:26:21.173Z,1.30
2022-12-22T16:27:55.445Z,2.00
2022-12-22T16:29:28.448Z,3.30
2022-12-22T16:31:01.988Z,1.40
2022-12-22T16:32:34.957Z,1.70
2022-12-22T16:34:10.420Z,1.50
2022-12-22T16:35:43.558Z,1.85
2022-12-22T16:37:16.577Z,1.95
2022-12-22T16:38:49.557Z,2.00
2022-12-22T16:40:22.581Z,2.55
2022-12-22T16:41:59.626Z,1.50
2022-12-22T16:43:51.513Z,1.70
2022-12-22T16:45:27.266Z,1.88
2022-12-22T16:47:00.316Z,2.10
2022-12-22T16:48:39.788Z,2.63
2022-12-22T16:50:18.434Z,1.88
2022-12-22T16:51:53.666Z,1.90
2022-12-22T16:53:28.532Z,1.80
2022-12-22T16:55:01.449Z,2.00
2022-12-22T16:56:34.892Z,2.08
2022-12-22T16:58:13.956Z,1.90
2022-12-22T16:59:47.209Z,2.20
2022-12-22T17:01:25.349Z,2.00
2022-12-22T17:03:02.810Z,2.10
2022-12-22T17:04:35.903Z,1.88
2022-12-22T17:06:11.866Z,2.45
2022-12-22T17:07:44.881Z,2.25
2022-12-22T17:09:23.160Z,1.70
2022-12-22T17:11:02.130Z,2.00
2022-12-22T17:12:39.339Z,2.20
2022-12-22T17:14:24.099Z,2.03
2022-12-22T17:15:57.041Z,1.95
2022-12-22T17:17:35.407Z,2.30
2022-12-22T17:19:12.349Z,2.45
2022-12-22T17:20:46.061Z,2.30
2022-12-22T17:22:25.982Z,2.13
2022-12-22T17:24:03.792Z,2.45
2022-12-22T17:25:36.862Z,1.98
2022-12-22T17:27:12.210Z,2.35
2022-12-22T17:28:45.894Z,2.13
2022-12-22T17:30:23.150Z,2.03
2022-12-22T17:31:56.914Z,2.10
2022-12-22T17:33:30.036Z,2.58
2022-12-22T17:35:02.945Z,1.90
2022-12-22T17:36:39.627Z,2.25
2022-12-22T17:38:15.123Z,2.00
2022-12-22T17:39:51.414Z,2.25
2022-12-22T17:41:24.397Z,1.90
2022-12-22T17:42:58.826Z,2.03
2022-12-22T17:44:31.794Z,2.05
2022-12-22T17:46:06.890Z,1.90
2022-12-22T17:47:42.915Z,1.90
2022-12-22T17:49:19.732Z,2.15
2022-12-22T17:50:53.004Z,2.83
2022-12-22T17:52:28.000Z,2.92
2022-12-22T17:54:01.410Z,2.03
2022-12-22T17:56:07.292Z,4.10
2022-12-22T17:57:30.813Z,2.88
2022-12-22T17:59:03.705Z,2.10
2022-12-22T18:00:36.630Z,2.38
2022-12-22T18:02:17.566Z,2.72
2022-12-22T18:03:50.774Z,2.42
2022-12-22T18:05:26.931Z,2.53
2022-12-22T18:07:00.003Z,2.35
2022-12-22T18:08:33.035Z,3.92
2022-12-22T18:10:07.669Z,3.08
2022-12-22T18:11:45.731Z,2.95
2022-12-22T18:13:22.489Z,3.00
2022-12-22T18:14:55.511Z,2.83
2022-12-22T18:16:29.227Z,2.55
2022-12-22T18:18:03.679Z,2.10
2022-12-22T18:19:36.680Z,2.22
2022-12-22T18:21:15.523Z,7.28
2022-12-22T18:22:48.732Z,3.92
2022-12-22T18:24:21.667Z,2.78
2022-12-22T18:25:54.982Z,2.60
2022-12-22T18:27:28.503Z,2.50
2022-12-22T18:29:01.859Z,2.15
2022-12-22T18:32:09.269Z,2.30
2022-12-22T18:33:43.653Z,2.88
2022-12-22T18:35:17.638Z,2.55
2022-12-22T18:36:51.089Z,3.20
2022-12-22T18:38:28.049Z,2.78
2022-12-22T18:40:01.942Z,3.20
2022-12-22T18:41:35.729Z,2.85
2022-12-22T18:43:13.725Z,2.20
2022-12-22T18:44:46.615Z,2.90
2022-12-22T18:46:20.240Z,3.17
2022-12-22T18:47:53.940Z,2.70
2022-12-22T18:49:28.329Z,2.95
2022-12-22T18:51:01.363Z,2.92
2022-12-22T18:52:34.327Z,2.92
2022-12-22T18:54:25.351Z,3.08
2022-12-22T18:55:59.227Z,3.50
2022-12-22T18:57:32.188Z,3.92
2022-12-22T18:59:16.424Z,4.95
2022-12-22T19:00:49.905Z,5.05
2022-12-22T19:02:29.317Z,4.10
2022-12-22T19:04:02.353Z,3.83
2022-12-22T19:05:37.842Z,4.28
2022-12-22T19:07:15.214Z,3.70
2022-12-22T19:08:48.765Z,2.90
2022-12-22T19:10:24.893Z,3.63
2022-12-22T19:11:57.889Z,3.65
2022-12-22T19:13:33.229Z,3.85
2022-12-22T19:15:08.183Z,3.50
2022-12-22T19:16:41.243Z,3.83
2022-12-22T19:18:22.637Z,3.78
2022-12-22T19:19:59.739Z,2.80
2022-12-22T19:21:33.956Z,3.63
2022-12-22T19:23:06.850Z,3.35
2022-12-22T19:24:39.779Z,4.15
2022-12-22T19:26:21.780Z,2.85
2022-12-22T19:27:56.919Z,3.65
2022-12-22T19:29:29.847Z,3.95
2022-12-22T19:31:04.504Z,3.45
2022-12-22T19:32:43.302Z,3.30
2022-12-22T19:34:19.847Z,3.28
2022-12-22T19:35:52.762Z,4.00
2022-12-22T19:37:27.133Z,3.35
2022-12-22T19:39:05.190Z,4.03
2022-12-22T19:40:38.943Z,3.60
2022-12-22T19:42:14.866Z,3.17
2022-12-22T19:43:47.797Z,3.50
2022-12-22T19:45:24.530Z,3.78
2022-12-22T19:47:00.041Z,3.35
2022-12-22T19:48:33.050Z,3.97
2022-12-22T19:50:08.183Z,5.40
2022-12-22T19:51:41.106Z,5.22
2022-12-22T19:53:16.241Z,4.90
2022-12-22T19:54:49.109Z,4.13
2022-12-22T19:56:26.465Z,4.53
2022-12-22T19:58:00.207Z,3.53
2022-12-22T19:59:39.368Z,2.85
2022-12-22T20:01:13.051Z,3.10
2022-12-22T20:04:19.319Z,3.28
2022-12-22T20:05:52.503Z,3.20
2022-12-22T20:07:28.358Z,3.50
2022-12-22T20:09:03.217Z,3.47
2022-12-22T20:10:37.337Z,3.75
2022-12-22T20:12:19.943Z,2.65
2022-12-22T20:13:52.870Z,3.05
2022-12-22T20:15:28.609Z,2.88
2022-12-22T20:17:01.597Z,3.53
2022-12-22T20:18:34.657Z,2.67
2022-12-22T20:20:14.132Z,2.92
2022-12-22T20:21:47.141Z,3.35
2022-12-22T20:23:21.787Z,3.25
2022-12-22T20:24:56.100Z,3.00
2022-12-22T20:26:32.499Z,3.15
2022-12-22T20:28:12.992Z,3.10
2022-12-22T20:29:46.000Z,2.70
2022-12-22T20:31:20.581Z,2.90
2022-12-22T20:32:54.479Z,3.20
2022-12-22T20:34:27.384Z,2.50
2022-12-22T20:36:02.743Z,2.40
2022-12-22T20:37:35.746Z,2.60
2022-12-22T20:39:14.216Z,2.90
2022-12-22T20:40:49.976Z,2.88
2022-12-22T20:42:25.618Z,3.08
2022-12-22T20:43:58.786Z,3.63
2022-12-22T20:45:32.588Z,3.72
2022-12-22T20:47:05.654Z,3.40
2022-12-22T20:48:40.862Z,2.83
2022-12-22T20:50:22.739Z,2.30
2022-12-22T20:51:55.739Z,2.40
2022-12-22T20:53:29.134Z,2.10
2022-12-22T20:56:38.832Z,2.75
2022-12-22T20:58:17.312Z,2.85
2022-12-22T20:59:55.617Z,2.40
2022-12-22T21:01:29.601Z,2.50
2022-12-22T21:03:02.725Z,2.38
2022-12-22T21:04:35.789Z,2.70
2022-12-22T21:06:24.275Z,2.35
2022-12-22T21:07:57.414Z,2.25
2022-12-22T21:09:30.367Z,3.42
2022-12-22T21:11:03.307Z,2.80
2022-12-22T21:12:39.095Z,2.75
2022-12-22T21:14:12.982Z,2.00
2022-12-22T21:15:47.560Z,2.65
2022-12-22T21:17:21.033Z,2.40
2022-12-22T21:18:54.848Z,2.53
2022-12-22T21:20:30.720Z,2.70
2022-12-22T21:22:03.764Z,2.45
2022-12-22T21:23:36.760Z,2.42
2022-12-22T21:25:10.639Z,3.15
2022-12-22T21:26:48.225Z,2.75
2022-12-22T21:28:28.093Z,2.92
2022-12-22T21:30:01.250Z,3.20
2022-12-22T21:31:34.347Z,4.13
2022-12-22T21:33:07.420Z,4.55
2022-12-22T21:34:40.342Z,4.70
2022-12-22T21:36:20.546Z,4.70
2022-12-22T21:37:54.450Z,4.18
2022-12-22T21:39:32.511Z,4.13
2022-12-22T21:41:05.620Z,5.05
2022-12-22T21:42:38.515Z,4.32
2022-12-22T21:44:13.340Z,4.70
2022-12-22T21:45:46.530Z,4.47
2022-12-22T21:47:21.243Z,4.80
2022-12-22T21:48:54.205Z,5.22
2022-12-22T21:50:29.843Z,4.47
2022-12-22T21:52:01.940Z,4.53
2022-12-22T21:53:34.907Z,5.72
2022-12-22T21:55:08.164Z,6.28
2022-12-22T21:56:41.289Z,5.55
2022-12-22T21:58:15.087Z,5.93
2022-12-22T21:59:49.331Z,4.13
2022-12-22T22:01:22.283Z,3.63
2022-12-22T22:02:56.320Z,4.45
2022-12-22T22:04:29.449Z,3.80
2022-12-22T22:06:02.398Z,4.07
2022-12-22T22:07:34.380Z,3.88
2022-12-22T22:09:07.671Z,3.30
2022-12-22T22:12:31.703Z,3.85
2022-12-22T22:14:04.633Z,3.53
2022-12-22T22:15:39.075Z,3.75
2022-12-22T22:17:11.316Z,3.65
2022-12-22T22:18:45.728Z,3.38
2022-12-22T22:20:20.799Z,3.67
2022-12-22T22:21:53.780Z,4.05
2022-12-22T22:23:26.694Z,3.13
2022-12-22T22:24:59.575Z,2.55
2022-12-22T22:26:32.474Z,3.22
2022-12-22T22:28:05.756Z,3.35
2022-12-22T22:29:38.733Z,3.13
2022-12-22T22:31:13.341Z,3.38
2022-12-22T22:32:46.948Z,3.13
2022-12-22T22:34:18.904Z,2.72
2022-12-22T22:35:53.774Z,2.67
2022-12-22T22:37:25.717Z,3.00
2022-12-22T22:38:58.742Z,3.15
2022-12-22T22:40:31.669Z,2.65
2022-12-22T22:42:04.655Z,3.17
2022-12-22T22:43:37.603Z,2.47
2022-12-22T22:45:14.265Z,3.00
2022-12-22T22:46:48.580Z,3.60
2022-12-22T22:48:23.355Z,3.05
2022-12-22T22:49:56.279Z,3.20
2022-12-22T22:51:28.299Z,3.15
2022-12-22T22:53:01.256Z,2.88
2022-12-22T22:54:34.154Z,2.20
2022-12-22T22:56:07.392Z,2.30
2022-12-22T22:57:40.685Z,2.60
2022-12-22T22:59:14.145Z,2.72
2022-12-22T23:00:47.098Z,2.40
2022-12-22T23:02:21.884Z,2.20
2022-12-22T23:03:55.132Z,2.70
2022-12-22T23:05:28.233Z,2.30
2022-12-22T23:07:01.521Z,2.97
2022-12-22T23:08:35.585Z,2.97